THY7LB LTAC-LTCD
Flight info
| Callsign | THY7LB |
|---|---|
| Flight time | 0h 59m |
| Altitude | 37000 |
| Route | GOBIT UL614 JUPNE UT54 SIV UL615 INTAB UM688 ERN UW88 ORHAN |
| Aircraft | A320/M-SDE3FGHIRWY/LB1 |
Departure
| Time | 2026-04-21 10:03 |
|---|---|
| Airport | Esenboğa International Airport (LTAC) |
Arrival
| Time | 2026-04-21 11:02 |
|---|---|
| Airport | Erzincan Airport (LTCD) |
| Time | Latitude | Longitude | Altitude | Speed | Heading |
|---|---|---|---|---|---|
| 2026-04-21 09:42 | 40.11917 | 32.99294 | 3134 ft | 0 kts | 344° |
| 2026-04-21 09:51 | 40.11911 | 32.99296 | 3134 ft | 4 kts | 343° |
| 2026-04-21 09:52 | 40.11885 | 32.99307 | 3134 ft | 4 kts | 339° |
| 2026-04-21 09:52 | 40.11861 | 32.99321 | 3134 ft | 4 kts | 326° |
| 2026-04-21 09:52 | 40.11843 | 32.99343 | 3134 ft | 4 kts | 283° |
| 2026-04-21 09:52 | 40.11842 | 32.99355 | 3134 ft | 0 kts | 255° |
| 2026-04-21 09:55 | 40.11841 | 32.99354 | 3134 ft | 1 kts | 255° |
| 2026-04-21 09:55 | 40.11837 | 32.99334 | 3134 ft | 3 kts | 255° |
| 2026-04-21 09:56 | 40.11829 | 32.99292 | 3134 ft | 6 kts | 255° |
| 2026-04-21 09:56 | 40.11815 | 32.99231 | 3134 ft | 8 kts | 251° |
| 2026-04-21 09:56 | 40.11788 | 32.99157 | 3134 ft | 10 kts | 239° |
| 2026-04-21 09:56 | 40.11788 | 32.99071 | 3134 ft | 11 kts | 298° |
| 2026-04-21 09:57 | 40.11856 | 32.99056 | 3134 ft | 12 kts | 30° |
| 2026-04-21 09:57 | 40.11930 | 32.99123 | 3134 ft | 14 kts | 36° |
| 2026-04-21 09:57 | 40.12012 | 32.99200 | 3134 ft | 15 kts | 36° |
| 2026-04-21 09:57 | 40.12102 | 32.99286 | 3134 ft | 17 kts | 37° |
| 2026-04-21 09:58 | 40.12202 | 32.99382 | 3134 ft | 18 kts | 36° |
| 2026-04-21 09:58 | 40.12309 | 32.99484 | 3134 ft | 20 kts | 36° |
| 2026-04-21 09:58 | 40.12426 | 32.99594 | 3134 ft | 21 kts | 36° |
| 2026-04-21 09:58 | 40.12550 | 32.99712 | 3134 ft | 23 kts | 38° |
| 2026-04-21 09:59 | 40.12681 | 32.99840 | 3134 ft | 24 kts | 36° |
| 2026-04-21 09:59 | 40.12824 | 32.99976 | 3134 ft | 26 kts | 36° |
| 2026-04-21 09:59 | 40.12976 | 33.00122 | 3134 ft | 28 kts | 36° |
| 2026-04-21 09:59 | 40.13137 | 33.00274 | 3134 ft | 29 kts | 36° |
| 2026-04-21 10:00 | 40.13305 | 33.00436 | 3135 ft | 31 kts | 36° |
| 2026-04-21 10:00 | 40.13481 | 33.00605 | 3135 ft | 32 kts | 36° |
| 2026-04-21 10:00 | 40.13664 | 33.00778 | 3134 ft | 34 kts | 36° |
| 2026-04-21 10:00 | 40.13856 | 33.00962 | 3134 ft | 35 kts | 37° |
| 2026-04-21 10:01 | 40.13999 | 33.01079 | 3135 ft | 22 kts | 8° |
| 2026-04-21 10:01 | 40.14106 | 33.00967 | 3136 ft | 22 kts | 282° |
| 2026-04-21 10:01 | 40.14186 | 33.00800 | 3134 ft | 18 kts | 307° |
| 2026-04-21 10:01 | 40.14212 | 33.00695 | 3133 ft | 12 kts | 248° |
| 2026-04-21 10:02 | 40.13987 | 33.00471 | 3133 ft | 72 kts | 217° |
| 2026-04-21 10:02 | 40.13417 | 32.99929 | 3134 ft | 128 kts | 216° |
| 2026-04-21 10:02 | 40.12582 | 32.99123 | 3215 ft | 162 kts | 220° |
| 2026-04-21 10:03 | 40.11674 | 32.98265 | 3818 ft | 162 kts | 218° |
| 2026-04-21 10:03 | 40.10747 | 32.97411 | 4529 ft | 163 kts | 218° |
| 2026-04-21 10:03 | 40.09802 | 32.96613 | 5268 ft | 161 kts | 215° |
| 2026-04-21 10:03 | 40.08799 | 32.95734 | 5580 ft | 185 kts | 220° |
| 2026-04-21 10:04 | 40.07705 | 32.94690 | 5900 ft | 204 kts | 219° |
| 2026-04-21 10:04 | 40.06523 | 32.93565 | 6223 ft | 226 kts | 218° |
| 2026-04-21 10:04 | 40.05198 | 32.92307 | 6754 ft | 241 kts | 219° |
| 2026-04-21 10:04 | 40.03830 | 32.90994 | 7606 ft | 246 kts | 220° |
| 2026-04-21 10:05 | 40.02377 | 32.89778 | 8499 ft | 253 kts | 207° |
| 2026-04-21 10:05 | 40.00641 | 32.89228 | 9336 ft | 265 kts | 184° |
| 2026-04-21 10:05 | 39.98769 | 32.89678 | 9850 ft | 289 kts | 157° |
| 2026-04-21 10:05 | 39.97016 | 32.91136 | 10226 ft | 311 kts | 144° |
| 2026-04-21 10:06 | 39.95512 | 32.93308 | 10475 ft | 339 kts | 120° |
| 2026-04-21 10:06 | 39.94775 | 32.96300 | 10836 ft | 356 kts | 98° |
| 2026-04-21 10:06 | 39.94401 | 32.99527 | 11486 ft | 362 kts | 98° |
| 2026-04-21 10:06 | 39.94021 | 33.02785 | 12210 ft | 366 kts | 98° |
| 2026-04-21 10:07 | 39.93631 | 33.06082 | 12916 ft | 370 kts | 98° |
| 2026-04-21 10:07 | 39.93230 | 33.09414 | 13670 ft | 374 kts | 98° |
| 2026-04-21 10:07 | 39.92819 | 33.12774 | 14331 ft | 378 kts | 98° |
| 2026-04-21 10:07 | 39.92398 | 33.16175 | 14962 ft | 382 kts | 98° |
| 2026-04-21 10:08 | 39.91970 | 33.19606 | 15617 ft | 385 kts | 98° |
| 2026-04-21 10:08 | 39.91538 | 33.23061 | 16222 ft | 389 kts | 98° |
| 2026-04-21 10:08 | 39.91108 | 33.26510 | 16826 ft | 393 kts | 98° |
| 2026-04-21 10:08 | 39.90664 | 33.30084 | 17440 ft | 397 kts | 98° |
| 2026-04-21 10:09 | 39.90225 | 33.33604 | 18042 ft | 401 kts | 98° |
| 2026-04-21 10:09 | 39.89774 | 33.37200 | 18611 ft | 405 kts | 98° |
| 2026-04-21 10:09 | 39.89315 | 33.40843 | 19167 ft | 409 kts | 98° |
| 2026-04-21 10:09 | 39.88852 | 33.44515 | 19732 ft | 413 kts | 98° |
| 2026-04-21 10:10 | 39.88384 | 33.48223 | 20302 ft | 418 kts | 98° |
| 2026-04-21 10:10 | 39.87772 | 33.51938 | 20839 ft | 423 kts | 106° |
| 2026-04-21 10:10 | 39.86799 | 33.55575 | 21359 ft | 427 kts | 109° |
| 2026-04-21 10:10 | 39.85786 | 33.59232 | 21882 ft | 431 kts | 109° |
| 2026-04-21 10:11 | 39.84766 | 33.62911 | 22380 ft | 435 kts | 109° |
| 2026-04-21 10:11 | 39.83735 | 33.66636 | 22895 ft | 439 kts | 109° |
| 2026-04-21 10:11 | 39.82699 | 33.70388 | 23393 ft | 443 kts | 109° |
| 2026-04-21 10:11 | 39.81667 | 33.74126 | 23822 ft | 447 kts | 109° |
| 2026-04-21 10:12 | 39.80611 | 33.77940 | 24241 ft | 449 kts | 110° |
| 2026-04-21 10:12 | 39.79543 | 33.81772 | 24661 ft | 452 kts | 110° |
| 2026-04-21 10:12 | 39.78466 | 33.85627 | 25062 ft | 455 kts | 110° |
| 2026-04-21 10:12 | 39.77383 | 33.89501 | 25447 ft | 457 kts | 110° |
| 2026-04-21 10:13 | 39.76291 | 33.93392 | 25826 ft | 460 kts | 110° |
| 2026-04-21 10:13 | 39.75187 | 33.97306 | 26210 ft | 463 kts | 110° |
| 2026-04-21 10:13 | 39.74074 | 34.01241 | 26593 ft | 465 kts | 110° |
| 2026-04-21 10:13 | 39.72948 | 34.05199 | 26962 ft | 468 kts | 110° |
| 2026-04-21 10:14 | 39.71815 | 34.09180 | 27338 ft | 471 kts | 111° |
| 2026-04-21 10:14 | 39.70675 | 34.13179 | 27715 ft | 474 kts | 111° |
| 2026-04-21 10:14 | 39.69527 | 34.17203 | 28082 ft | 476 kts | 111° |
| 2026-04-21 10:14 | 39.68388 | 34.21192 | 28441 ft | 479 kts | 111° |
| 2026-04-21 10:15 | 39.67212 | 34.25313 | 28797 ft | 482 kts | 111° |
| 2026-04-21 10:15 | 39.66063 | 34.29350 | 29131 ft | 484 kts | 111° |
| 2026-04-21 10:15 | 39.64891 | 34.33460 | 29474 ft | 487 kts | 111° |
| 2026-04-21 10:15 | 39.63906 | 34.37667 | 29832 ft | 489 kts | 103° |
| 2026-04-21 10:16 | 39.63388 | 34.42041 | 30134 ft | 492 kts | 93° |
| 2026-04-21 10:16 | 39.63383 | 34.46473 | 30522 ft | 490 kts | 84° |
| 2026-04-21 10:16 | 39.63776 | 34.50856 | 30947 ft | 488 kts | 81° |
| 2026-04-21 10:16 | 39.64192 | 34.55221 | 31370 ft | 487 kts | 82° |
| 2026-04-21 10:17 | 39.64595 | 34.59579 | 31801 ft | 486 kts | 82° |
| 2026-04-21 10:17 | 39.64987 | 34.63934 | 32251 ft | 485 kts | 82° |
| 2026-04-21 10:17 | 39.65373 | 34.68276 | 32714 ft | 484 kts | 82° |
| 2026-04-21 10:17 | 39.65758 | 34.72608 | 33164 ft | 482 kts | 82° |
| 2026-04-21 10:18 | 39.66140 | 34.76924 | 33626 ft | 481 kts | 82° |
| 2026-04-21 10:18 | 39.66523 | 34.81233 | 34073 ft | 480 kts | 82° |
| 2026-04-21 10:18 | 39.66909 | 34.85537 | 34440 ft | 479 kts | 82° |
| 2026-04-21 10:18 | 39.67293 | 34.89836 | 34784 ft | 479 kts | 82° |
| 2026-04-21 10:19 | 39.67673 | 34.94129 | 35121 ft | 479 kts | 82° |
| 2026-04-21 10:19 | 39.68050 | 34.98424 | 35447 ft | 479 kts | 82° |
| 2026-04-21 10:19 | 39.68427 | 35.02723 | 35761 ft | 479 kts | 82° |
| 2026-04-21 10:19 | 39.68800 | 35.07013 | 36083 ft | 479 kts | 82° |
| 2026-04-21 10:20 | 39.69169 | 35.11309 | 36392 ft | 479 kts | 82° |
| 2026-04-21 10:20 | 39.69537 | 35.15607 | 36701 ft | 479 kts | 82° |
| 2026-04-21 10:20 | 39.69907 | 35.19904 | 36939 ft | 480 kts | 82° |
| 2026-04-21 10:21 | 39.70654 | 35.28546 | 36996 ft | 482 kts | 82° |
| 2026-04-21 10:21 | 39.71393 | 35.37208 | 36997 ft | 482 kts | 82° |
| 2026-04-21 10:22 | 39.72114 | 35.45870 | 36994 ft | 482 kts | 82° |
| 2026-04-21 10:22 | 39.72831 | 35.54537 | 36996 ft | 483 kts | 83° |
| 2026-04-21 10:23 | 39.73543 | 35.63153 | 36988 ft | 482 kts | 83° |
| 2026-04-21 10:23 | 39.74248 | 35.71820 | 37003 ft | 482 kts | 83° |
| 2026-04-21 10:24 | 39.74940 | 35.80486 | 37001 ft | 482 kts | 83° |
| 2026-04-21 10:24 | 39.75624 | 35.89153 | 37002 ft | 482 kts | 83° |
| 2026-04-21 10:25 | 39.76310 | 35.97819 | 37006 ft | 482 kts | 83° |
| 2026-04-21 10:25 | 39.76990 | 36.06476 | 36997 ft | 481 kts | 83° |
| 2026-04-21 10:26 | 39.77663 | 36.15123 | 37001 ft | 480 kts | 83° |
| 2026-04-21 10:26 | 39.78322 | 36.23754 | 36994 ft | 480 kts | 84° |
| 2026-04-21 10:27 | 39.78658 | 36.32414 | 36993 ft | 480 kts | 88° |
| 2026-04-21 10:27 | 39.78644 | 36.41101 | 37004 ft | 480 kts | 90° |
| 2026-04-21 10:28 | 39.78609 | 36.49769 | 36989 ft | 479 kts | 89° |
| 2026-04-21 10:28 | 39.78672 | 36.58372 | 37024 ft | 479 kts | 88° |
| 2026-04-21 10:29 | 39.78775 | 36.67027 | 37043 ft | 479 kts | 88° |
| 2026-04-21 10:29 | 39.78859 | 36.75678 | 37063 ft | 479 kts | 89° |
| 2026-04-21 10:30 | 39.78921 | 36.84342 | 37068 ft | 479 kts | 89° |
| 2026-04-21 10:30 | 39.79239 | 36.92974 | 37080 ft | 478 kts | 83° |
| 2026-04-21 10:31 | 39.79953 | 37.01564 | 37075 ft | 478 kts | 83° |
| 2026-04-21 10:31 | 39.80661 | 37.10155 | 37054 ft | 478 kts | 83° |
| 2026-04-21 10:32 | 39.81359 | 37.18750 | 37033 ft | 478 kts | 83° |
| 2026-04-21 10:32 | 39.82042 | 37.27340 | 37014 ft | 478 kts | 83° |
| 2026-04-21 10:33 | 39.82725 | 37.35943 | 37005 ft | 478 kts | 83° |
| 2026-04-21 10:33 | 39.83393 | 37.44491 | 37001 ft | 478 kts | 83° |
| 2026-04-21 10:34 | 39.84060 | 37.53090 | 37000 ft | 478 kts | 83° |
| 2026-04-21 10:34 | 39.84713 | 37.61704 | 36999 ft | 478 kts | 83° |
| 2026-04-21 10:35 | 39.85358 | 37.70303 | 36998 ft | 478 kts | 83° |
| 2026-04-21 10:35 | 39.85998 | 37.78910 | 36997 ft | 477 kts | 83° |
| 2026-04-21 10:36 | 39.86634 | 37.87521 | 36991 ft | 478 kts | 83° |
| 2026-04-21 10:36 | 39.87269 | 37.96139 | 36995 ft | 478 kts | 84° |
| 2026-04-21 10:37 | 39.87896 | 38.04758 | 36993 ft | 478 kts | 84° |
| 2026-04-21 10:37 | 39.88515 | 38.13323 | 36998 ft | 478 kts | 84° |
| 2026-04-21 10:38 | 39.89134 | 38.21946 | 36989 ft | 478 kts | 84° |
| 2026-04-21 10:38 | 39.89757 | 38.30576 | 36816 ft | 479 kts | 84° |
| 2026-04-21 10:38 | 39.90064 | 38.34885 | 36557 ft | 477 kts | 84° |
| 2026-04-21 10:39 | 39.90365 | 38.39187 | 36302 ft | 477 kts | 83° |
| 2026-04-21 10:39 | 39.90664 | 38.43483 | 36050 ft | 476 kts | 83° |
| 2026-04-21 10:39 | 39.90962 | 38.47778 | 35795 ft | 475 kts | 83° |
| 2026-04-21 10:39 | 39.91256 | 38.52060 | 35552 ft | 475 kts | 83° |
| 2026-04-21 10:40 | 39.91547 | 38.56342 | 35305 ft | 474 kts | 83° |
| 2026-04-21 10:40 | 39.91838 | 38.60616 | 35062 ft | 473 kts | 83° |
| 2026-04-21 10:40 | 39.92032 | 38.63440 | 34906 ft | 473 kts | 83° |
| 2026-04-21 10:40 | 39.92323 | 38.67707 | 34677 ft | 472 kts | 83° |
| 2026-04-21 10:41 | 39.92612 | 38.71968 | 34315 ft | 472 kts | 83° |
| 2026-04-21 10:41 | 39.92901 | 38.76252 | 33257 ft | 478 kts | 83° |
| 2026-04-21 10:41 | 39.93193 | 38.80581 | 32327 ft | 480 kts | 83° |
| 2026-04-21 10:41 | 39.93480 | 38.84923 | 31351 ft | 482 kts | 83° |
| 2026-04-21 10:42 | 39.93757 | 38.89287 | 30459 ft | 484 kts | 84° |
| 2026-04-21 10:42 | 39.93940 | 38.93638 | 29904 ft | 477 kts | 86° |
| 2026-04-21 10:42 | 39.94025 | 38.97938 | 29224 ft | 472 kts | 87° |
| 2026-04-21 10:42 | 39.94049 | 39.02185 | 28602 ft | 466 kts | 89° |
| 2026-04-21 10:43 | 39.93736 | 39.06365 | 27979 ft | 463 kts | 100° |
| 2026-04-21 10:43 | 39.92907 | 39.10399 | 27349 ft | 459 kts | 109° |
| 2026-04-21 10:43 | 39.91647 | 39.14185 | 26733 ft | 454 kts | 118° |
| 2026-04-21 10:43 | 39.89995 | 39.17657 | 26132 ft | 449 kts | 126° |
| 2026-04-21 10:44 | 39.88219 | 39.20972 | 25524 ft | 445 kts | 126° |
| 2026-04-21 10:44 | 39.86448 | 39.24256 | 24923 ft | 441 kts | 126° |
| 2026-04-21 10:44 | 39.84688 | 39.27500 | 24346 ft | 437 kts | 126° |
| 2026-04-21 10:44 | 39.82936 | 39.30714 | 23780 ft | 433 kts | 126° |
| 2026-04-21 10:45 | 39.81199 | 39.33899 | 23163 ft | 430 kts | 126° |
| 2026-04-21 10:45 | 39.79501 | 39.37014 | 22646 ft | 424 kts | 126° |
| 2026-04-21 10:45 | 39.77801 | 39.40127 | 22133 ft | 420 kts | 126° |
| 2026-04-21 10:45 | 39.76117 | 39.43205 | 21642 ft | 416 kts | 126° |
| 2026-04-21 10:46 | 39.74445 | 39.46255 | 21148 ft | 413 kts | 126° |
| 2026-04-21 10:46 | 39.72784 | 39.49287 | 20644 ft | 411 kts | 126° |
| 2026-04-21 10:46 | 39.71192 | 39.52352 | 20140 ft | 408 kts | 120° |
| 2026-04-21 10:46 | 39.69977 | 39.55671 | 19618 ft | 406 kts | 111° |
| 2026-04-21 10:47 | 39.68975 | 39.59093 | 19109 ft | 404 kts | 111° |
| 2026-04-21 10:47 | 39.67970 | 39.62487 | 18557 ft | 403 kts | 111° |
| 2026-04-21 10:47 | 39.66960 | 39.65876 | 17971 ft | 401 kts | 111° |
| 2026-04-21 10:47 | 39.65956 | 39.69237 | 17393 ft | 398 kts | 111° |
| 2026-04-21 10:48 | 39.64960 | 39.72563 | 16831 ft | 394 kts | 111° |
| 2026-04-21 10:48 | 39.63971 | 39.75862 | 16263 ft | 390 kts | 111° |
| 2026-04-21 10:48 | 39.62993 | 39.79126 | 15699 ft | 386 kts | 111° |
| 2026-04-21 10:48 | 39.62024 | 39.82361 | 15138 ft | 383 kts | 111° |
| 2026-04-21 10:49 | 39.61062 | 39.85567 | 14573 ft | 380 kts | 111° |
| 2026-04-21 10:49 | 39.60119 | 39.88704 | 14035 ft | 377 kts | 111° |
| 2026-04-21 10:49 | 39.59186 | 39.91804 | 13856 ft | 358 kts | 111° |
| 2026-04-21 10:49 | 39.58315 | 39.94691 | 13720 ft | 331 kts | 112° |
| 2026-04-21 10:50 | 39.57257 | 39.97215 | 13584 ft | 307 kts | 127° |
| 2026-04-21 10:50 | 39.55882 | 39.99226 | 13267 ft | 292 kts | 140° |
| 2026-04-21 10:50 | 39.54241 | 40.00749 | 12946 ft | 288 kts | 152° |
| 2026-04-21 10:50 | 39.52442 | 40.01849 | 12684 ft | 284 kts | 157° |
| 2026-04-21 10:51 | 39.50647 | 40.02896 | 12421 ft | 282 kts | 157° |
| 2026-04-21 10:51 | 39.48876 | 40.03942 | 12260 ft | 282 kts | 155° |
| 2026-04-21 10:51 | 39.47321 | 40.05448 | 12012 ft | 281 kts | 128° |
| 2026-04-21 10:51 | 39.46512 | 40.07704 | 12045 ft | 282 kts | 99° |
| 2026-04-21 10:52 | 39.46598 | 40.10224 | 12063 ft | 283 kts | 70° |
| 2026-04-21 10:52 | 39.47596 | 40.12369 | 12065 ft | 279 kts | 41° |
| 2026-04-21 10:52 | 39.49230 | 40.13642 | 12060 ft | 275 kts | 13° |
| 2026-04-21 10:52 | 39.51105 | 40.13803 | 12064 ft | 270 kts | 347° |
| 2026-04-21 10:53 | 39.52799 | 40.12868 | 12061 ft | 261 kts | 320° |
| 2026-04-21 10:53 | 39.53927 | 40.11182 | 12061 ft | 246 kts | 296° |
| 2026-04-21 10:53 | 39.54478 | 40.09116 | 12065 ft | 243 kts | 284° |
| 2026-04-21 10:53 | 39.54926 | 40.07000 | 12058 ft | 244 kts | 285° |
| 2026-04-21 10:54 | 39.55375 | 40.04886 | 12058 ft | 244 kts | 285° |
| 2026-04-21 10:54 | 39.55860 | 40.02781 | 12030 ft | 244 kts | 289° |
| 2026-04-21 10:54 | 39.56487 | 40.00729 | 11675 ft | 246 kts | 292° |
| 2026-04-21 10:54 | 39.57185 | 39.98695 | 11338 ft | 247 kts | 294° |
| 2026-04-21 10:55 | 39.57902 | 39.96665 | 11007 ft | 249 kts | 294° |
| 2026-04-21 10:55 | 39.58623 | 39.94618 | 10685 ft | 250 kts | 294° |
| 2026-04-21 10:55 | 39.59338 | 39.92550 | 10355 ft | 252 kts | 292° |
| 2026-04-21 10:55 | 39.60000 | 39.90445 | 10026 ft | 253 kts | 291° |
| 2026-04-21 10:56 | 39.60634 | 39.88316 | 9672 ft | 252 kts | 290° |
| 2026-04-21 10:56 | 39.61245 | 39.86227 | 9330 ft | 243 kts | 290° |
| 2026-04-21 10:56 | 39.61833 | 39.84218 | 9021 ft | 234 kts | 290° |
| 2026-04-21 10:56 | 39.62395 | 39.82303 | 8721 ft | 223 kts | 290° |
| 2026-04-21 10:57 | 39.62937 | 39.80459 | 8394 ft | 213 kts | 290° |
| 2026-04-21 10:57 | 39.63461 | 39.78679 | 8089 ft | 210 kts | 291° |
| 2026-04-21 10:57 | 39.63986 | 39.76900 | 7770 ft | 211 kts | 291° |
| 2026-04-21 10:57 | 39.64509 | 39.75120 | 7441 ft | 211 kts | 291° |
| 2026-04-21 10:58 | 39.65030 | 39.73338 | 7153 ft | 211 kts | 292° |
| 2026-04-21 10:58 | 39.65541 | 39.71600 | 6869 ft | 207 kts | 291° |
| 2026-04-21 10:58 | 39.66047 | 39.69886 | 6583 ft | 199 kts | 292° |
| 2026-04-21 10:58 | 39.66529 | 39.68254 | 6292 ft | 188 kts | 291° |
| 2026-04-21 10:59 | 39.66981 | 39.66721 | 6002 ft | 176 kts | 291° |
| 2026-04-21 10:59 | 39.67414 | 39.65252 | 5742 ft | 172 kts | 290° |
| 2026-04-21 10:59 | 39.67838 | 39.63815 | 5511 ft | 168 kts | 291° |
| 2026-04-21 10:59 | 39.68235 | 39.62466 | 5255 ft | 152 kts | 290° |
| 2026-04-21 11:00 | 39.68604 | 39.61210 | 5029 ft | 146 kts | 291° |
| 2026-04-21 11:00 | 39.68962 | 39.59997 | 4819 ft | 143 kts | 291° |
| 2026-04-21 11:00 | 39.69315 | 39.58794 | 4597 ft | 142 kts | 291° |
| 2026-04-21 11:00 | 39.69660 | 39.57600 | 4379 ft | 140 kts | 290° |
| 2026-04-21 11:01 | 39.70011 | 39.56432 | 4198 ft | 137 kts | 290° |
| 2026-04-21 11:01 | 39.70345 | 39.55265 | 3990 ft | 138 kts | 290° |
| 2026-04-21 11:01 | 39.70690 | 39.54108 | 3812 ft | 137 kts | 290° |
| 2026-04-21 11:02 | 39.71108 | 39.52681 | 3798 ft | 37 kts | 291° |
| 2026-04-21 11:02 | 39.71204 | 39.52362 | 3795 ft | 38 kts | 290° |
| 2026-04-21 11:02 | 39.71276 | 39.52109 | 3792 ft | 17 kts | 291° |
| 2026-04-21 11:02 | 39.71358 | 39.52036 | 3792 ft | 16 kts | 30° |
| 2026-04-21 11:03 | 39.71466 | 39.52084 | 3793 ft | 13 kts | 21° |
| 2026-04-21 11:03 | 39.71536 | 39.52118 | 3793 ft | 6 kts | 20° |
| 2026-04-21 11:03 | 39.71574 | 39.52100 | 3793 ft | 7 kts | 306° |
| 2026-04-21 11:03 | 39.71616 | 39.52088 | 3793 ft | 7 kts | 22° |
| 2026-04-21 11:04 | 39.71642 | 39.52103 | 3792 ft | 1 kts | 22° |
| 2026-04-21 11:04 | 39.71653 | 39.52108 | 3793 ft | 0 kts | 20° |